sensor_id;sensor_type;location;lat;lon;timestamp;pressure;altitude;pressure_sealevel;temperature;humidity
44148;BME280;29810;55.848;37.368;2022-09-16T00:02:46;97669.81;;;9.06;100.00
44148;BME280;29810;55.848;37.368;2022-09-16T00:05:51;97669.53;;;9.10;100.00
44148;BME280;29810;55.848;37.368;2022-09-16T00:08:55;97670.03;;;9.17;100.00
44148;BME280;29810;55.848;37.368;2022-09-16T00:11:57;97669.97;;;9.19;100.00
44148;BME280;29810;55.848;37.368;2022-09-16T00:14:59;97658.88;;;9.15;100.00
44148;BME280;29810;55.848;37.368;2022-09-16T00:18:01;97663.16;;;9.16;100.00
44148;BME280;29810;55.848;37.368;2022-09-16T00:21:06;97655.38;;;9.16;100.00
44148;BME280;29810;55.848;37.368;2022-09-16T00:24:09;97661.63;;;9.12;100.00
44148;BME280;29810;55.848;37.368;2022-09-16T00:27:14;97667.03;;;9.09;100.00
44148;BME280;29810;55.848;37.368;2022-09-16T00:30:15;97668.84;;;9.07;100.00
44148;BME280;29810;55.848;37.368;2022-09-16T00:33:18;97662.00;;;9.06;100.00
44148;BME280;29810;55.848;37.368;2022-09-16T00:36:20;97643.03;;;9.04;100.00
44148;BME280;29810;55.848;37.368;2022-09-16T00:39:21;97670.34;;;9.27;100.00
44148;BME280;29810;55.848;37.368;2022-09-16T00:42:23;97669.16;;;9.33;100.00
44148;BME280;29810;55.848;37.368;2022-09-16T00:45:25;97666.47;;;9.50;100.00
44148;BME280;29810;55.848;37.368;2022-09-16T00:48:32;97664.06;;;9.61;100.00
44148;BME280;29810;55.848;37.368;2022-09-16T00:51:36;97656.25;;;9.61;100.00
44148;BME280;29810;55.848;37.368;2022-09-16T00:54:38;97661.47;;;9.61;100.00
44148;BME280;29810;55.848;37.368;2022-09-16T00:57:40;97666.28;;;9.53;100.00
44148;BME280;29810;55.848;37.368;2022-09-16T01:00:42;97655.28;;;9.48;100.00
44148;BME280;29810;55.848;37.368;2022-09-16T01:03:48;97646.34;;;9.38;100.00
44148;BME280;29810;55.848;37.368;2022-09-16T01:06:53;97660.09;;;9.40;100.00
44148;BME280;29810;55.848;37.368;2022-09-16T01:09:54;97656.16;;;9.33;100.00
44148;BME280;29810;55.848;37.368;2022-09-16T01:13:04;97628.25;;;9.20;100.00
44148;BME280;29810;55.848;37.368;2022-09-16T01:16:30;97657.03;;;9.33;100.00
44148;BME280;29810;55.848;37.368;2022-09-16T01:23:32;97647.78;;;9.27;100.00
44148;BME280;29810;55.848;37.368;2022-09-16T01:34:03;97658.19;;;9.27;100.00
44148;BME280;29810;55.848;37.368;2022-09-16T01:40:54;97651.28;;;9.42;100.00
44148;BME280;29810;55.848;37.368;2022-09-16T01:44:08;97631.41;;;9.41;100.00
44148;BME280;29810;55.848;37.368;2022-09-16T01:47:35;97636.50;;;9.43;100.00
44148;BME280;29810;55.848;37.368;2022-09-16T01:50:43;97645.22;;;9.42;100.00
44148;BME280;29810;55.848;37.368;2022-09-16T01:57:12;97638.06;;;9.31;100.00
44148;BME280;29810;55.848;37.368;2022-09-16T02:00:17;97630.56;;;9.41;100.00
44148;BME280;29810;55.848;37.368;2022-09-16T02:03:25;97633.72;;;9.46;100.00
44148;BME280;29810;55.848;37.368;2022-09-16T02:06:31;97637.87;;;9.65;100.00
44148;BME280;29810;55.848;37.368;2022-09-16T02:09:40;97637.16;;;9.77;100.00
44148;BME280;29810;55.848;37.368;2022-09-16T02:12:45;97627.12;;;9.85;100.00
44148;BME280;29810;55.848;37.368;2022-09-16T02:15:50;97621.38;;;9.80;100.00
44148;BME280;29810;55.848;37.368;2022-09-16T02:18:56;97640.31;;;9.82;100.00
44148;BME280;29810;55.848;37.368;2022-09-16T02:22:10;97640.53;;;9.93;100.00
44148;BME280;29810;55.848;37.368;2022-09-16T02:25:14;97632.75;;;10.08;100.00
44148;BME280;29810;55.848;37.368;2022-09-16T02:28:24;97622.87;;;10.13;100.00
44148;BME280;29810;55.848;37.368;2022-09-16T02:31:32;97625.84;;;10.21;100.00
44148;BME280;29810;55.848;37.368;2022-09-16T02:34:45;97631.88;;;10.22;100.00
44148;BME280;29810;55.848;37.368;2022-09-16T02:40:57;97616.44;;;10.33;100.00
44148;BME280;29810;55.848;37.368;2022-09-16T02:44:01;97624.16;;;10.35;100.00
44148;BME280;29810;55.848;37.368;2022-09-16T02:47:12;97615.47;;;10.36;100.00
44148;BME280;29810;55.848;37.368;2022-09-16T02:53:49;97610.06;;;10.53;100.00
44148;BME280;29810;55.848;37.368;2022-09-16T02:56:54;97601.28;;;10.54;100.00
44148;BME280;29810;55.848;37.368;2022-09-16T02:59:56;97599.63;;;10.53;100.00
44148;BME280;29810;55.848;37.368;2022-09-16T03:02:58;97597.75;;;10.55;100.00
44148;BME280;29810;55.848;37.368;2022-09-16T03:09:10;97595.81;;;10.59;99.60
44148;BME280;29810;55.848;37.368;2022-09-16T03:22:17;97606.00;;;10.76;98.53
44148;BME280;29810;55.848;37.368;2022-09-16T03:26:14;97602.66;;;10.74;98.68
44148;BME280;29810;55.848;37.368;2022-09-16T03:32:21;97602.19;;;10.82;97.98
44148;BME280;29810;55.848;37.368;2022-09-16T03:35:30;97594.16;;;10.85;97.45
44148;BME280;29810;55.848;37.368;2022-09-16T03:38:35;97605.59;;;10.83;97.45
44148;BME280;29810;55.848;37.368;2022-09-16T03:41:38;97604.56;;;10.85;97.58
44148;BME280;29810;55.848;37.368;2022-09-16T03:44:40;97603.25;;;10.92;97.45
44148;BME280;29810;55.848;37.368;2022-09-16T03:47:43;97608.06;;;10.99;97.19
44148;BME280;29810;55.848;37.368;2022-09-16T03:50:45;97608.81;;;11.01;96.74
44148;BME280;29810;55.848;37.368;2022-09-16T03:53:47;97613.00;;;11.03;96.61
44148;BME280;29810;55.848;37.368;2022-09-16T03:56:48;97608.59;;;11.04;96.63
44148;BME280;29810;55.848;37.368;2022-09-16T03:59:50;97607.41;;;11.09;96.51
44148;BME280;29810;55.848;37.368;2022-09-16T04:02:51;97607.41;;;11.09;96.25
44148;BME280;29810;55.848;37.368;2022-09-16T04:05:54;97612.41;;;11.13;96.12
44148;BME280;29810;55.848;37.368;2022-09-16T04:08:56;97583.28;;;11.06;95.90
44148;BME280;29810;55.848;37.368;2022-09-16T04:11:59;97603.69;;;11.26;95.62
44148;BME280;29810;55.848;37.368;2022-09-16T04:15:01;97611.19;;;11.31;95.28
44148;BME280;29810;55.848;37.368;2022-09-16T04:18:04;97603.62;;;11.41;95.11
44148;BME280;29810;55.848;37.368;2022-09-16T04:21:06;97595.03;;;11.39;94.65
44148;BME280;29810;55.848;37.368;2022-09-16T04:24:08;97610.63;;;11.53;93.93
44148;BME280;29810;55.848;37.368;2022-09-16T04:27:09;97604.25;;;11.57;93.79
44148;BME280;29810;55.848;37.368;2022-09-16T04:30:11;97600.81;;;11.57;93.51
44148;BME280;29810;55.848;37.368;2022-09-16T04:33:13;97596.44;;;11.57;93.48
44148;BME280;29810;55.848;37.368;2022-09-16T04:36:16;97584.31;;;11.56;93.21
44148;BME280;29810;55.848;37.368;2022-09-16T04:39:18;97595.50;;;11.58;93.36
44148;BME280;29810;55.848;37.368;2022-09-16T04:42:20;97597.28;;;11.58;93.19
44148;BME280;29810;55.848;37.368;2022-09-16T04:45:22;97591.22;;;11.57;93.19
44148;BME280;29810;55.848;37.368;2022-09-16T04:48:24;97580.66;;;11.59;93.12
44148;BME280;29810;55.848;37.368;2022-09-16T04:51:26;97583.91;;;11.63;92.94
44148;BME280;29810;55.848;37.368;2022-09-16T04:54:28;97590.06;;;11.62;92.86
44148;BME280;29810;55.848;37.368;2022-09-16T04:57:31;97577.87;;;11.62;92.74
44148;BME280;29810;55.848;37.368;2022-09-16T05:00:33;97594.88;;;11.68;92.80
44148;BME280;29810;55.848;37.368;2022-09-16T05:03:34;97588.81;;;11.67;92.56
44148;BME280;29810;55.848;37.368;2022-09-16T05:06:38;97584.03;;;11.74;92.48
44148;BME280;29810;55.848;37.368;2022-09-16T05:09:40;97583.81;;;11.77;92.45
44148;BME280;29810;55.848;37.368;2022-09-16T05:12:42;97569.31;;;11.86;92.31
44148;BME280;29810;55.848;37.368;2022-09-16T05:15:44;97567.31;;;11.89;92.08
44148;BME280;29810;55.848;37.368;2022-09-16T05:18:47;97569.59;;;11.94;91.82
44148;BME280;29810;55.848;37.368;2022-09-16T05:21:48;97566.91;;;11.96;91.79
44148;BME280;29810;55.848;37.368;2022-09-16T05:24:51;97564.31;;;11.96;91.60
44148;BME280;29810;55.848;37.368;2022-09-16T05:27:52;97555.34;;;12.00;91.74
44148;BME280;29810;55.848;37.368;2022-09-16T05:30:54;97558.03;;;12.11;91.48
44148;BME280;29810;55.848;37.368;2022-09-16T05:36:58;97567.63;;;12.23;90.82
44148;BME280;29810;55.848;37.368;2022-09-16T05:40:00;97566.19;;;12.19;90.80
44148;BME280;29810;55.848;37.368;2022-09-16T05:43:04;97561.16;;;12.16;90.90
44148;BME280;29810;55.848;37.368;2022-09-16T05:46:06;97540.88;;;12.20;90.91
44148;BME280;29810;55.848;37.368;2022-09-16T05:49:09;97553.03;;;12.45;90.47
44148;BME280;29810;55.848;37.368;2022-09-16T05:52:11;97552.81;;;12.61;89.59
44148;BME280;29810;55.848;37.368;2022-09-16T05:55:13;97551.59;;;12.78;89.35
44148;BME280;29810;55.848;37.368;2022-09-16T05:58:14;97547.56;;;12.85;88.66
44148;BME280;29810;55.848;37.368;2022-09-16T06:01:19;97544.50;;;12.91;88.29
44148;BME280;29810;55.848;37.368;2022-09-16T06:04:22;97535.44;;;12.84;87.78
44148;BME280;29810;55.848;37.368;2022-09-16T06:07:23;97539.78;;;12.97;87.77
44148;BME280;29810;55.848;37.368;2022-09-16T06:10:25;97527.62;;;12.96;87.65
44148;BME280;29810;55.848;37.368;2022-09-16T06:13:26;97540.53;;;13.10;87.12
44148;BME280;29810;55.848;37.368;2022-09-16T06:16:28;97535.06;;;13.13;86.81
44148;BME280;29810;55.848;37.368;2022-09-16T06:19:33;97532.94;;;13.18;86.79
44148;BME280;29810;55.848;37.368;2022-09-16T06:22:34;97523.34;;;13.30;86.31
44148;BME280;29810;55.848;37.368;2022-09-16T06:25:36;97497.41;;;13.27;85.66
44148;BME280;29810;55.848;37.368;2022-09-16T06:28:37;97516.19;;;13.56;85.60
44148;BME280;29810;55.848;37.368;2022-09-16T06:31:40;97510.72;;;13.71;84.96
44148;BME280;29810;55.848;37.368;2022-09-16T06:34:41;97528.81;;;13.97;84.02
44148;BME280;29810;55.848;37.368;2022-09-16T06:37:43;97523.34;;;14.22;83.12
44148;BME280;29810;55.848;37.368;2022-09-16T06:40:44;97513.06;;;14.42;82.13
44148;BME280;29810;55.848;37.368;2022-09-16T06:43:47;97515.41;;;14.56;81.35
44148;BME280;29810;55.848;37.368;2022-09-16T06:46:49;97516.13;;;14.58;80.79
44148;BME280;29810;55.848;37.368;2022-09-16T06:49:50;97511.84;;;14.57;80.46
44148;BME280;29810;55.848;37.368;2022-09-16T06:52:52;97504.22;;;14.66;80.22
44148;BME280;29810;55.848;37.368;2022-09-16T06:55:53;97508.81;;;14.62;80.24
44148;BME280;29810;55.848;37.368;2022-09-16T06:58:55;97497.97;;;14.78;80.19
44148;BME280;29810;55.848;37.368;2022-09-16T07:01:57;97499.88;;;15.09;78.65
44148;BME280;29810;55.848;37.368;2022-09-16T07:04:58;97491.34;;;15.37;78.01
44148;BME280;29810;55.848;37.368;2022-09-16T07:08:02;97493.00;;;15.60;76.74
44148;BME280;29810;55.848;37.368;2022-09-16T07:11:09;97493.87;;;15.70;76.49
44148;BME280;29810;55.848;37.368;2022-09-16T07:14:11;97497.28;;;15.82;75.68
44148;BME280;29810;55.848;37.368;2022-09-16T07:17:12;97489.50;;;15.80;75.72
44148;BME280;29810;55.848;37.368;2022-09-16T07:20:14;97489.66;;;15.79;75.99
44148;BME280;29810;55.848;37.368;2022-09-16T07:23:15;97488.59;;;15.81;75.77
44148;BME280;29810;55.848;37.368;2022-09-16T07:26:19;97488.59;;;15.81;75.76
44148;BME280;29810;55.848;37.368;2022-09-16T07:29:21;97491.75;;;15.85;75.47
44148;BME280;29810;55.848;37.368;2022-09-16T07:32:23;97488.78;;;15.68;75.53
44148;BME280;29810;55.848;37.368;2022-09-16T07:35:25;97481.28;;;15.64;75.93
44148;BME280;29810;55.848;37.368;2022-09-16T07:38:28;97473.94;;;15.88;75.64
44148;BME280;29810;55.848;37.368;2022-09-16T07:41:38;97475.53;;;16.11;74.40
44148;BME280;29810;55.848;37.368;2022-09-16T07:44:40;97474.25;;;16.65;72.81
44148;BME280;29810;55.848;37.368;2022-09-16T07:47:42;97457.38;;;17.07;71.54
44148;BME280;29810;55.848;37.368;2022-09-16T07:50:43;97453.25;;;17.52;69.72
44148;BME280;29810;55.848;37.368;2022-09-16T07:53:59;97457.00;;;17.59;68.85
44148;BME280;29810;55.848;37.368;2022-09-16T07:57:00;97463.81;;;17.90;68.01
44148;BME280;29810;55.848;37.368;2022-09-16T08:00:03;97453.09;;;18.01;67.32
44148;BME280;29810;55.848;37.368;2022-09-16T08:03:12;97455.44;;;18.04;67.04
44148;BME280;29810;55.848;37.368;2022-09-16T08:06:22;97451.59;;;17.98;67.32
44148;BME280;29810;55.848;37.368;2022-09-16T08:09:24;97455.19;;;17.97;67.14
44148;BME280;29810;55.848;37.368;2022-09-16T08:12:25;97447.53;;;17.66;67.94
44148;BME280;29810;55.848;37.368;2022-09-16T08:15:32;97437.91;;;17.47;68.43
44148;BME280;29810;55.848;37.368;2022-09-16T08:18:34;97434.88;;;17.42;68.62
44148;BME280;29810;55.848;37.368;2022-09-16T08:21:36;97436.44;;;17.63;68.21
44148;BME280;29810;55.848;37.368;2022-09-16T08:24:37;97427.78;;;17.80;67.29
44148;BME280;29810;55.848;37.368;2022-09-16T08:27:39;97420.19;;;18.05;66.41
44148;BME280;29810;55.848;37.368;2022-09-16T08:30:41;97413.31;;;18.40;65.43
44148;BME280;29810;55.848;37.368;2022-09-16T08:33:43;97404.34;;;18.51;63.91
44148;BME280;29810;55.848;37.368;2022-09-16T08:36:46;97409.66;;;18.41;64.36
44148;BME280;29810;55.848;37.368;2022-09-16T08:39:48;97410.97;;;18.73;64.06
44148;BME280;29810;55.848;37.368;2022-09-16T08:43:35;97408.19;;;19.19;62.93
44148;BME280;29810;55.848;37.368;2022-09-16T08:46:54;97408.53;;;19.85;61.59
44148;BME280;29810;55.848;37.368;2022-09-16T08:50:00;97409.06;;;19.89;59.95
44148;BME280;29810;55.848;37.368;2022-09-16T08:53:21;97410.31;;;19.76;59.87
44148;BME280;29810;55.848;37.368;2022-09-16T08:56:27;97411.75;;;19.97;59.45
44148;BME280;29810;55.848;37.368;2022-09-16T08:59:34;97410.59;;;19.73;59.58
44148;BME280;29810;55.848;37.368;2022-09-16T09:02:41;97406.41;;;19.54;59.31
44148;BME280;29810;55.848;37.368;2022-09-16T09:05:55;97403.34;;;19.67;59.95
44148;BME280;29810;55.848;37.368;2022-09-16T09:15:26;97403.19;;;20.11;60.91
44148;BME280;29810;55.848;37.368;2022-09-16T09:22:01;97401.03;;;19.11;59.17
44148;BME280;29810;55.848;37.368;2022-09-16T09:41:34;97382.09;;;18.53;61.91
44148;BME280;29810;55.848;37.368;2022-09-16T09:44:39;97391.19;;;18.77;60.71
44148;BME280;29810;55.848;37.368;2022-09-16T09:47:46;97384.50;;;19.09;60.43
44148;BME280;29810;55.848;37.368;2022-09-16T09:50:49;97386.06;;;19.20;60.03
44148;BME280;29810;55.848;37.368;2022-09-16T09:53:55;97383.06;;;19.41;59.83
44148;BME280;29810;55.848;37.368;2022-09-16T09:57:00;97381.34;;;19.32;59.49
44148;BME280;29810;55.848;37.368;2022-09-16T10:00:17;97375.75;;;19.09;59.59
44148;BME280;29810;55.848;37.368;2022-09-16T10:03:22;97365.38;;;19.07;60.49
44148;BME280;29810;55.848;37.368;2022-09-16T10:06:27;97365.69;;;18.86;60.41
44148;BME280;29810;55.848;37.368;2022-09-16T10:09:30;97373.53;;;18.96;60.21
44148;BME280;29810;55.848;37.368;2022-09-16T10:12:34;97372.75;;;18.85;60.43
44148;BME280;29810;55.848;37.368;2022-09-16T10:15:37;97372.88;;;18.94;60.12
44148;BME280;29810;55.848;37.368;2022-09-16T10:18:39;97363.81;;;18.96;60.43
44148;BME280;29810;55.848;37.368;2022-09-16T10:21:43;97361.38;;;19.03;60.70
44148;BME280;29810;55.848;37.368;2022-09-16T10:24:53;97355.78;;;19.06;60.70
44148;BME280;29810;55.848;37.368;2022-09-16T10:27:58;97350.09;;;18.93;60.70
44148;BME280;29810;55.848;37.368;2022-09-16T10:31:01;97346.31;;;18.77;61.08
44148;BME280;29810;55.848;37.368;2022-09-16T10:37:18;97341.41;;;18.82;61.43
44148;BME280;29810;55.848;37.368;2022-09-16T10:40:21;97341.81;;;18.69;61.30
44148;BME280;29810;55.848;37.368;2022-09-16T10:43:24;97339.31;;;18.68;61.04
44148;BME280;29810;55.848;37.368;2022-09-16T10:46:28;97340.09;;;18.60;61.15
44148;BME280;29810;55.848;37.368;2022-09-16T10:52:44;97336.88;;;18.12;63.05
44148;BME280;29810;55.848;37.368;2022-09-16T10:55:55;97336.72;;;17.96;64.15
44148;BME280;29810;55.848;37.368;2022-09-16T11:05:49;97329.22;;;17.35;67.48
44148;BME280;29810;55.848;37.368;2022-09-16T11:09:05;97331.56;;;17.11;68.05
44148;BME280;29810;55.848;37.368;2022-09-16T11:25:21;97312.41;;;16.51;72.99
44148;BME280;29810;55.848;37.368;2022-09-16T11:31:54;97311.34;;;16.25;75.09
44148;BME280;29810;55.848;37.368;2022-09-16T11:35:25;97309.53;;;16.15;73.48
44148;BME280;29810;55.848;37.368;2022-09-16T11:38:44;97307.84;;;16.24;74.05
44148;BME280;29810;55.848;37.368;2022-09-16T11:52:32;97281.16;;;15.89;75.72
44148;BME280;29810;55.848;37.368;2022-09-16T11:59:04;97274.78;;;15.82;77.13
44148;BME280;29810;55.848;37.368;2022-09-16T12:02:27;97272.28;;;15.81;77.08
44148;BME280;29810;55.848;37.368;2022-09-16T12:12:04;97268.25;;;15.77;78.89
44148;BME280;29810;55.848;37.368;2022-09-16T12:15:33;97265.34;;;15.70;77.22
44148;BME280;29810;55.848;37.368;2022-09-16T12:18:44;97267.41;;;15.66;79.47
44148;BME280;29810;55.848;37.368;2022-09-16T12:25:24;97260.34;;;15.57;77.88
44148;BME280;29810;55.848;37.368;2022-09-16T12:28:38;97255.50;;;15.52;78.53
44148;BME280;29810;55.848;37.368;2022-09-16T12:35:20;97262.41;;;15.53;77.26
44148;BME280;29810;55.848;37.368;2022-09-16T12:38:25;97257.44;;;15.50;77.32
44148;BME280;29810;55.848;37.368;2022-09-16T12:52:07;97263.94;;;15.46;76.94
44148;BME280;29810;55.848;37.368;2022-09-16T13:02:08;97268.19;;;15.47;78.60
44148;BME280;29810;55.848;37.368;2022-09-16T13:05:37;97277.28;;;15.33;77.76
44148;BME280;29810;55.848;37.368;2022-09-16T13:08:40;97273.81;;;15.23;80.00
44148;BME280;29810;55.848;37.368;2022-09-16T13:11:52;97273.59;;;15.05;80.74
44148;BME280;29810;55.848;37.368;2022-09-16T13:14:56;97274.91;;;14.89;84.02
44148;BME280;29810;55.848;37.368;2022-09-16T13:21:27;97286.06;;;14.82;85.31
44148;BME280;29810;55.848;37.368;2022-09-16T13:24:39;97278.84;;;14.74;85.74
44148;BME280;29810;55.848;37.368;2022-09-16T13:28:00;97266.75;;;14.62;86.70
44148;BME280;29810;55.848;37.368;2022-09-16T13:34:17;97275.38;;;14.52;89.02
44148;BME280;29810;55.848;37.368;2022-09-16T13:37:25;97269.97;;;14.44;88.31
44148;BME280;29810;55.848;37.368;2022-09-16T13:40:29;97274.22;;;14.45;89.12
44148;BME280;29810;55.848;37.368;2022-09-16T13:46:42;97272.25;;;14.37;90.19
44148;BME280;29810;55.848;37.368;2022-09-16T13:52:56;97264.37;;;14.16;93.65
44148;BME280;29810;55.848;37.368;2022-09-16T13:56:32;97262.91;;;14.02;92.78
44148;BME280;29810;55.848;37.368;2022-09-16T13:59:52;97259.44;;;14.02;94.05
44148;BME280;29810;55.848;37.368;2022-09-16T14:03:03;97266.78;;;13.87;92.87
44148;BME280;29810;55.848;37.368;2022-09-16T14:10:05;97261.22;;;13.80;94.18
44148;BME280;29810;55.848;37.368;2022-09-16T14:13:22;97256.06;;;13.79;94.76
44148;BME280;29810;55.848;37.368;2022-09-16T14:16:26;97260.94;;;13.83;94.82
44148;BME280;29810;55.848;37.368;2022-09-16T14:19:33;97262.75;;;13.83;95.00
44148;BME280;29810;55.848;37.368;2022-09-16T14:22:36;97266.44;;;13.80;95.28
44148;BME280;29810;55.848;37.368;2022-09-16T14:25:38;97257.59;;;13.81;95.34
44148;BME280;29810;55.848;37.368;2022-09-16T14:28:41;97261.69;;;13.74;95.49
44148;BME280;29810;55.848;37.368;2022-09-16T14:31:42;97268.16;;;13.70;95.81
44148;BME280;29810;55.848;37.368;2022-09-16T14:34:45;97260.19;;;13.60;95.87
44148;BME280;29810;55.848;37.368;2022-09-16T14:37:51;97261.78;;;13.51;96.61
44148;BME280;29810;55.848;37.368;2022-09-16T14:40:55;97263.78;;;13.48;97.46
44148;BME280;29810;55.848;37.368;2022-09-16T14:44:15;97259.88;;;13.42;97.78
44148;BME280;29810;55.848;37.368;2022-09-16T14:47:22;97268.78;;;13.39;98.93
44148;BME280;29810;55.848;37.368;2022-09-16T14:50:28;97267.72;;;13.31;98.84
44148;BME280;29810;55.848;37.368;2022-09-16T14:53:32;97275.78;;;13.28;98.98
44148;BME280;29810;55.848;37.368;2022-09-16T14:56:36;97281.53;;;13.21;98.64
44148;BME280;29810;55.848;37.368;2022-09-16T14:59:39;97270.81;;;13.13;98.12
44148;BME280;29810;55.848;37.368;2022-09-16T15:02:47;97271.78;;;13.01;97.81
44148;BME280;29810;55.848;37.368;2022-09-16T15:05:51;97261.22;;;12.80;97.90
44148;BME280;29810;55.848;37.368;2022-09-16T15:09:01;97256.44;;;12.73;98.05
44148;BME280;29810;55.848;37.368;2022-09-16T15:12:04;97225.63;;;12.54;98.49
44148;BME280;29810;55.848;37.368;2022-09-16T15:15:20;97233.38;;;12.56;98.07
44148;BME280;29810;55.848;37.368;2022-09-16T15:18:26;97224.34;;;12.60;98.71
44148;BME280;29810;55.848;37.368;2022-09-16T15:21:35;97227.69;;;12.51;98.84
44148;BME280;29810;55.848;37.368;2022-09-16T15:24:39;97228.63;;;12.50;99.37
44148;BME280;29810;55.848;37.368;2022-09-16T15:27:42;97228.63;;;12.50;99.64
44148;BME280;29810;55.848;37.368;2022-09-16T15:30:50;97224.09;;;12.52;99.89
44148;BME280;29810;55.848;37.368;2022-09-16T15:33:54;97229.72;;;12.58;100.00
44148;BME280;29810;55.848;37.368;2022-09-16T15:36:57;97229.47;;;12.62;99.83
44148;BME280;29810;55.848;37.368;2022-09-16T15:43:26;97230.53;;;12.70;100.00
44148;BME280;29810;55.848;37.368;2022-09-16T15:46:29;97225.88;;;12.74;100.00
44148;BME280;29810;55.848;37.368;2022-09-16T15:49:34;97223.66;;;12.69;100.00
44148;BME280;29810;55.848;37.368;2022-09-16T15:53:01;97219.13;;;12.71;100.00
44148;BME280;29810;55.848;37.368;2022-09-16T15:56:22;97221.88;;;12.81;100.00
44148;BME280;29810;55.848;37.368;2022-09-16T15:59:44;97214.97;;;12.80;100.00
44148;BME280;29810;55.848;37.368;2022-09-16T16:02:56;97210.09;;;12.75;100.00
44148;BME280;29810;55.848;37.368;2022-09-16T16:06:01;97210.44;;;12.71;100.00
44148;BME280;29810;55.848;37.368;2022-09-16T16:09:05;97203.56;;;12.70;100.00
44148;BME280;29810;55.848;37.368;2022-09-16T16:12:12;97209.38;;;12.73;100.00
44148;BME280;29810;55.848;37.368;2022-09-16T16:15:16;97213.28;;;12.79;100.00
44148;BME280;29810;55.848;37.368;2022-09-16T16:18:19;97205.09;;;12.84;100.00
44148;BME280;29810;55.848;37.368;2022-09-16T16:21:20;97199.03;;;12.83;100.00
44148;BME280;29810;55.848;37.368;2022-09-16T16:24:23;97191.91;;;12.85;100.00
44148;BME280;29810;55.848;37.368;2022-09-16T16:27:24;97198.81;;;12.86;100.00
44148;BME280;29810;55.848;37.368;2022-09-16T16:30:26;97189.03;;;12.88;100.00
44148;BME280;29810;55.848;37.368;2022-09-16T16:33:28;97188.94;;;12.90;100.00
44148;BME280;29810;55.848;37.368;2022-09-16T16:36:29;97177.88;;;12.86;100.00
44148;BME280;29810;55.848;37.368;2022-09-16T16:39:31;97185.47;;;12.89;100.00
44148;BME280;29810;55.848;37.368;2022-09-16T16:42:34;97186.06;;;12.93;100.00
44148;BME280;29810;55.848;37.368;2022-09-16T16:45:36;97184.28;;;12.93;100.00
44148;BME280;29810;55.848;37.368;2022-09-16T16:48:38;97185.94;;;12.95;100.00
44148;BME280;29810;55.848;37.368;2022-09-16T16:51:39;97182.38;;;12.96;100.00
44148;BME280;29810;55.848;37.368;2022-09-16T16:54:41;97181.44;;;12.97;100.00
44148;BME280;29810;55.848;37.368;2022-09-16T16:57:43;97182.38;;;12.96;100.00
44148;BME280;29810;55.848;37.368;2022-09-16T17:00:46;97179.31;;;12.90;100.00
44148;BME280;29810;55.848;37.368;2022-09-16T17:03:49;97177.75;;;12.99;100.00
44148;BME280;29810;55.848;37.368;2022-09-16T17:06:51;97192.59;;;12.99;100.00
44148;BME280;29810;55.848;37.368;2022-09-16T17:09:54;97186.06;;;13.04;100.00
44148;BME280;29810;55.848;37.368;2022-09-16T17:12:57;97185.47;;;13.12;100.00
44148;BME280;29810;55.848;37.368;2022-09-16T17:15:59;97179.50;;;13.10;100.00
44148;BME280;29810;55.848;37.368;2022-09-16T17:19:01;97194.94;;;13.13;100.00
44148;BME280;29810;55.848;37.368;2022-09-16T17:22:03;97178.69;;;13.09;100.00
44148;BME280;29810;55.848;37.368;2022-09-16T17:25:06;97183.66;;;13.13;100.00
44148;BME280;29810;55.848;37.368;2022-09-16T17:28:08;97185.47;;;13.12;100.00
44148;BME280;29810;55.848;37.368;2022-09-16T17:31:21;97194.72;;;13.16;100.00
44148;BME280;29810;55.848;37.368;2022-09-16T17:34:24;97193.66;;;13.19;100.00
44148;BME280;29810;55.848;37.368;2022-09-16T17:37:27;97186.50;;;13.21;100.00
44148;BME280;29810;55.848;37.368;2022-09-16T17:40:29;97196.37;;;13.17;100.00
44148;BME280;29810;55.848;37.368;2022-09-16T17:43:32;97199.25;;;13.03;100.00
44148;BME280;29810;55.848;37.368;2022-09-16T17:46:34;97199.28;;;12.91;100.00
44148;BME280;29810;55.848;37.368;2022-09-16T17:49:36;97205.56;;;13.00;100.00
44148;BME280;29810;55.848;37.368;2022-09-16T17:52:38;97201.50;;;13.07;100.00
44148;BME280;29810;55.848;37.368;2022-09-16T17:55:40;97168.09;;;13.00;100.00
44148;BME280;29810;55.848;37.368;2022-09-16T17:58:43;97190.44;;;13.04;100.00
44148;BME280;29810;55.848;37.368;2022-09-16T18:01:49;97191.66;;;13.00;100.00
44148;BME280;29810;55.848;37.368;2022-09-16T18:04:53;97183.81;;;13.00;100.00
44148;BME280;29810;55.848;37.368;2022-09-16T18:07:54;97188.94;;;12.90;100.00
44148;BME280;29810;55.848;37.368;2022-09-16T18:10:57;97188.00;;;12.80;100.00
44148;BME280;29810;55.848;37.368;2022-09-16T18:14:01;97160.28;;;12.54;100.00
44148;BME280;29810;55.848;37.368;2022-09-16T18:17:04;97183.13;;;12.52;100.00
44148;BME280;29810;55.848;37.368;2022-09-16T18:20:06;97127.28;;;12.08;100.00
44148;BME280;29810;55.848;37.368;2022-09-16T18:23:09;97175.72;;;12.35;100.00
44148;BME280;29810;55.848;37.368;2022-09-16T18:26:12;97180.25;;;12.33;100.00
44148;BME280;29810;55.848;37.368;2022-09-16T18:29:15;97191.88;;;12.40;100.00
44148;BME280;29810;55.848;37.368;2022-09-16T18:32:17;97190.00;;;12.42;100.00
44148;BME280;29810;55.848;37.368;2022-09-16T18:35:20;97176.94;;;12.42;100.00
44148;BME280;29810;55.848;37.368;2022-09-16T18:38:21;97184.78;;;12.42;100.00
44148;BME280;29810;55.848;37.368;2022-09-16T18:41:37;97192.38;;;12.34;100.00
44148;BME280;29810;55.848;37.368;2022-09-16T18:44:40;97152.91;;;12.03;100.00
44148;BME280;29810;55.848;37.368;2022-09-16T18:47:42;97171.66;;;12.08;100.00
44148;BME280;29810;55.848;37.368;2022-09-16T18:50:43;97187.47;;;12.18;100.00
44148;BME280;29810;55.848;37.368;2022-09-16T18:53:47;97189.75;;;12.22;100.00